sensor_id;sensor_type;location;lat;lon;timestamp;P1;durP1;ratioP1;P2;durP2;ratioP2
31384;SDS011;18016;49.788;8.742;2023-02-25T00:00:23;11.98;;;4.82;;
31384;SDS011;18016;49.788;8.742;2023-02-25T00:02:48;9.13;;;4.57;;
31384;SDS011;18016;49.788;8.742;2023-02-25T00:05:14;8.27;;;4.18;;
31384;SDS011;18016;49.788;8.742;2023-02-25T00:07:39;6.10;;;3.50;;
31384;SDS011;18016;49.788;8.742;2023-02-25T00:10:05;11.17;;;4.73;;
31384;SDS011;18016;49.788;8.742;2023-02-25T00:12:31;11.18;;;4.60;;
31384;SDS011;18016;49.788;8.742;2023-02-25T00:14:56;11.90;;;3.43;;
31384;SDS011;18016;49.788;8.742;2023-02-25T00:17:21;12.43;;;3.70;;
31384;SDS011;18016;49.788;8.742;2023-02-25T00:19:46;9.25;;;3.42;;
31384;SDS011;18016;49.788;8.742;2023-02-25T00:22:12;6.07;;;2.80;;
31384;SDS011;18016;49.788;8.742;2023-02-25T00:24:38;7.75;;;3.50;;
31384;SDS011;18016;49.788;8.742;2023-02-25T00:27:03;7.47;;;3.27;;
31384;SDS011;18016;49.788;8.742;2023-02-25T00:29:28;7.18;;;2.88;;
31384;SDS011;18016;49.788;8.742;2023-02-25T00:31:53;9.55;;;3.63;;
31384;SDS011;18016;49.788;8.742;2023-02-25T00:34:19;9.43;;;3.23;;
31384;SDS011;18016;49.788;8.742;2023-02-25T00:36:44;8.87;;;2.90;;
31384;SDS011;18016;49.788;8.742;2023-02-25T00:39:09;8.77;;;3.05;;
31384;SDS011;18016;49.788;8.742;2023-02-25T00:41:35;8.65;;;3.17;;
31384;SDS011;18016;49.788;8.742;2023-02-25T00:44:01;7.78;;;3.25;;
31384;SDS011;18016;49.788;8.742;2023-02-25T00:46:27;9.48;;;3.45;;
31384;SDS011;18016;49.788;8.742;2023-02-25T00:48:52;7.47;;;2.92;;
31384;SDS011;18016;49.788;8.742;2023-02-25T00:51:19;5.23;;;2.90;;
31384;SDS011;18016;49.788;8.742;2023-02-25T00:53:44;5.90;;;3.30;;
31384;SDS011;18016;49.788;8.742;2023-02-25T00:56:11;7.60;;;3.38;;
31384;SDS011;18016;49.788;8.742;2023-02-25T00:58:40;7.75;;;3.42;;
31384;SDS011;18016;49.788;8.742;2023-02-25T01:01:05;5.95;;;3.17;;
31384;SDS011;18016;49.788;8.742;2023-02-25T01:03:38;8.38;;;3.85;;
31384;SDS011;18016;49.788;8.742;2023-02-25T01:06:04;11.80;;;4.00;;
31384;SDS011;18016;49.788;8.742;2023-02-25T01:08:31;9.15;;;3.97;;
31384;SDS011;18016;49.788;8.742;2023-02-25T01:10:56;11.53;;;3.90;;
31384;SDS011;18016;49.788;8.742;2023-02-25T01:13:21;14.07;;;4.00;;
31384;SDS011;18016;49.788;8.742;2023-02-25T01:15:47;11.27;;;4.10;;
31384;SDS011;18016;49.788;8.742;2023-02-25T01:18:12;9.90;;;4.65;;
31384;SDS011;18016;49.788;8.742;2023-02-25T01:20:38;8.17;;;4.67;;
31384;SDS011;18016;49.788;8.742;2023-02-25T01:23:03;9.02;;;4.38;;
31384;SDS011;18016;49.788;8.742;2023-02-25T01:25:28;11.88;;;5.30;;
31384;SDS011;18016;49.788;8.742;2023-02-25T01:27:55;11.47;;;4.67;;
31384;SDS011;18016;49.788;8.742;2023-02-25T01:30:20;13.93;;;5.20;;
31384;SDS011;18016;49.788;8.742;2023-02-25T01:32:45;10.87;;;5.17;;
31384;SDS011;18016;49.788;8.742;2023-02-25T01:35:11;13.07;;;5.07;;
31384;SDS011;18016;49.788;8.742;2023-02-25T01:37:36;11.75;;;5.25;;
31384;SDS011;18016;49.788;8.742;2023-02-25T01:40:01;12.80;;;5.63;;
31384;SDS011;18016;49.788;8.742;2023-02-25T01:42:28;13.07;;;5.25;;
31384;SDS011;18016;49.788;8.742;2023-02-25T01:47:37;14.35;;;5.35;;
31384;SDS011;18016;49.788;8.742;2023-02-25T01:50:04;16.05;;;5.35;;
31384;SDS011;18016;49.788;8.742;2023-02-25T01:52:29;14.02;;;5.85;;
31384;SDS011;18016;49.788;8.742;2023-02-25T01:54:55;14.77;;;6.47;;
31384;SDS011;18016;49.788;8.742;2023-02-25T01:57:21;14.25;;;5.60;;
31384;SDS011;18016;49.788;8.742;2023-02-25T01:59:47;13.10;;;6.03;;
31384;SDS011;18016;49.788;8.742;2023-02-25T02:02:13;15.93;;;6.05;;
31384;SDS011;18016;49.788;8.742;2023-02-25T02:04:39;15.27;;;5.93;;
31384;SDS011;18016;49.788;8.742;2023-02-25T02:07:05;15.88;;;5.60;;
31384;SDS011;18016;49.788;8.742;2023-02-25T02:09:31;16.58;;;6.40;;
31384;SDS011;18016;49.788;8.742;2023-02-25T02:11:57;11.73;;;5.63;;
31384;SDS011;18016;49.788;8.742;2023-02-25T02:14:28;12.35;;;5.63;;
31384;SDS011;18016;49.788;8.742;2023-02-25T02:16:57;12.98;;;5.40;;
31384;SDS011;18016;49.788;8.742;2023-02-25T02:19:29;10.68;;;5.13;;
31384;SDS011;18016;49.788;8.742;2023-02-25T02:22:11;18.10;;;6.35;;
31384;SDS011;18016;49.788;8.742;2023-02-25T02:27:13;10.27;;;4.47;;
31384;SDS011;18016;49.788;8.742;2023-02-25T02:29:47;19.30;;;5.30;;
31384;SDS011;18016;49.788;8.742;2023-02-25T02:37:39;13.25;;;4.20;;
31384;SDS011;18016;49.788;8.742;2023-02-25T02:42:42;19.23;;;5.00;;
31384;SDS011;18016;49.788;8.742;2023-02-25T02:45:11;14.05;;;4.25;;
31384;SDS011;18016;49.788;8.742;2023-02-25T02:47:38;12.48;;;4.40;;
31384;SDS011;18016;49.788;8.742;2023-02-25T02:50:09;11.82;;;4.13;;
31384;SDS011;18016;49.788;8.742;2023-02-25T02:52:43;14.23;;;4.68;;
31384;SDS011;18016;49.788;8.742;2023-02-25T02:55:20;13.88;;;4.82;;
31384;SDS011;18016;49.788;8.742;2023-02-25T02:57:46;14.38;;;4.32;;
31384;SDS011;18016;49.788;8.742;2023-02-25T03:00:12;14.80;;;4.78;;
31384;SDS011;18016;49.788;8.742;2023-02-25T03:02:41;20.08;;;4.88;;
31384;SDS011;18016;49.788;8.742;2023-02-25T03:05:08;14.18;;;4.07;;
31384;SDS011;18016;49.788;8.742;2023-02-25T03:07:36;14.68;;;5.03;;
31384;SDS011;18016;49.788;8.742;2023-02-25T03:10:04;15.40;;;4.28;;
31384;SDS011;18016;49.788;8.742;2023-02-25T03:12:30;13.50;;;4.07;;
31384;SDS011;18016;49.788;8.742;2023-02-25T03:14:56;9.32;;;4.22;;
31384;SDS011;18016;49.788;8.742;2023-02-25T03:17:22;13.00;;;3.90;;
31384;SDS011;18016;49.788;8.742;2023-02-25T03:22:34;17.58;;;4.93;;
31384;SDS011;18016;49.788;8.742;2023-02-25T03:25:13;14.90;;;4.60;;
31384;SDS011;18016;49.788;8.742;2023-02-25T03:27:44;14.70;;;4.82;;
31384;SDS011;18016;49.788;8.742;2023-02-25T03:32:51;13.70;;;4.50;;
31384;SDS011;18016;49.788;8.742;2023-02-25T03:35:18;14.50;;;4.00;;
31384;SDS011;18016;49.788;8.742;2023-02-25T03:37:44;13.35;;;4.05;;
31384;SDS011;18016;49.788;8.742;2023-02-25T03:40:10;15.68;;;4.63;;
31384;SDS011;18016;49.788;8.742;2023-02-25T03:42:40;13.90;;;4.47;;
31384;SDS011;18016;49.788;8.742;2023-02-25T03:45:07;15.45;;;4.03;;
31384;SDS011;18016;49.788;8.742;2023-02-25T03:47:33;14.20;;;3.97;;
31384;SDS011;18016;49.788;8.742;2023-02-25T03:50:00;17.20;;;4.60;;
31384;SDS011;18016;49.788;8.742;2023-02-25T03:52:26;15.40;;;4.25;;
31384;SDS011;18016;49.788;8.742;2023-02-25T03:54:53;17.58;;;4.68;;
31384;SDS011;18016;49.788;8.742;2023-02-25T03:57:19;20.35;;;4.20;;
31384;SDS011;18016;49.788;8.742;2023-02-25T03:59:45;15.45;;;4.40;;
31384;SDS011;18016;49.788;8.742;2023-02-25T04:02:10;14.93;;;3.67;;
31384;SDS011;18016;49.788;8.742;2023-02-25T04:04:36;15.68;;;3.53;;
31384;SDS011;18016;49.788;8.742;2023-02-25T04:07:01;15.80;;;3.20;;
31384;SDS011;18016;49.788;8.742;2023-02-25T04:09:26;17.13;;;3.57;;
31384;SDS011;18016;49.788;8.742;2023-02-25T04:11:51;15.57;;;3.50;;
31384;SDS011;18016;49.788;8.742;2023-02-25T04:14:20;13.90;;;3.63;;
31384;SDS011;18016;49.788;8.742;2023-02-25T04:16:46;14.27;;;3.42;;
31384;SDS011;18016;49.788;8.742;2023-02-25T04:19:11;18.33;;;3.93;;
31384;SDS011;18016;49.788;8.742;2023-02-25T04:21:36;16.42;;;4.13;;
31384;SDS011;18016;49.788;8.742;2023-02-25T04:24:02;17.05;;;4.35;;
31384;SDS011;18016;49.788;8.742;2023-02-25T04:26:27;19.73;;;4.05;;
31384;SDS011;18016;49.788;8.742;2023-02-25T04:28:53;10.05;;;3.33;;
31384;SDS011;18016;49.788;8.742;2023-02-25T04:31:18;13.50;;;3.63;;
31384;SDS011;18016;49.788;8.742;2023-02-25T04:33:43;17.85;;;3.42;;
31384;SDS011;18016;49.788;8.742;2023-02-25T04:36:20;18.70;;;4.43;;
31384;SDS011;18016;49.788;8.742;2023-02-25T04:38:45;16.58;;;3.10;;
31384;SDS011;18016;49.788;8.742;2023-02-25T04:41:10;18.30;;;3.65;;
31384;SDS011;18016;49.788;8.742;2023-02-25T04:43:36;12.37;;;4.20;;
31384;SDS011;18016;49.788;8.742;2023-02-25T04:46:01;8.73;;;3.23;;
31384;SDS011;18016;49.788;8.742;2023-02-25T04:48:26;17.17;;;4.13;;
31384;SDS011;18016;49.788;8.742;2023-02-25T04:50:51;15.07;;;3.95;;
31384;SDS011;18016;49.788;8.742;2023-02-25T04:53:16;14.27;;;3.40;;
31384;SDS011;18016;49.788;8.742;2023-02-25T04:55:42;15.20;;;3.27;;
31384;SDS011;18016;49.788;8.742;2023-02-25T04:58:07;17.60;;;4.18;;
31384;SDS011;18016;49.788;8.742;2023-02-25T05:00:32;11.40;;;3.63;;
31384;SDS011;18016;49.788;8.742;2023-02-25T05:02:57;14.70;;;3.63;;
31384;SDS011;18016;49.788;8.742;2023-02-25T05:05:23;13.53;;;3.90;;
31384;SDS011;18016;49.788;8.742;2023-02-25T05:07:48;20.67;;;4.15;;
31384;SDS011;18016;49.788;8.742;2023-02-25T05:10:13;20.23;;;3.60;;
31384;SDS011;18016;49.788;8.742;2023-02-25T05:12:38;15.35;;;3.95;;
31384;SDS011;18016;49.788;8.742;2023-02-25T05:15:04;19.70;;;3.63;;
31384;SDS011;18016;49.788;8.742;2023-02-25T05:17:33;12.88;;;3.22;;
31384;SDS011;18016;49.788;8.742;2023-02-25T05:19:58;25.33;;;4.13;;
31384;SDS011;18016;49.788;8.742;2023-02-25T05:22:24;18.20;;;3.60;;
31384;SDS011;18016;49.788;8.742;2023-02-25T05:24:49;16.55;;;3.72;;
31384;SDS011;18016;49.788;8.742;2023-02-25T05:27:15;15.27;;;2.88;;
31384;SDS011;18016;49.788;8.742;2023-02-25T05:29:40;15.50;;;3.20;;
31384;SDS011;18016;49.788;8.742;2023-02-25T05:32:05;18.67;;;3.10;;
31384;SDS011;18016;49.788;8.742;2023-02-25T05:34:31;15.43;;;3.22;;
31384;SDS011;18016;49.788;8.742;2023-02-25T05:36:56;17.23;;;3.10;;
31384;SDS011;18016;49.788;8.742;2023-02-25T05:39:21;8.93;;;2.73;;
31384;SDS011;18016;49.788;8.742;2023-02-25T05:41:47;17.33;;;3.73;;
31384;SDS011;18016;49.788;8.742;2023-02-25T05:44:12;18.15;;;3.50;;
31384;SDS011;18016;49.788;8.742;2023-02-25T05:46:38;15.73;;;2.83;;
31384;SDS011;18016;49.788;8.742;2023-02-25T05:49:03;20.13;;;3.50;;
31384;SDS011;18016;49.788;8.742;2023-02-25T05:51:28;16.50;;;3.20;;
31384;SDS011;18016;49.788;8.742;2023-02-25T05:53:53;15.65;;;3.13;;
31384;SDS011;18016;49.788;8.742;2023-02-25T05:56:20;12.00;;;2.83;;
31384;SDS011;18016;49.788;8.742;2023-02-25T05:58:45;14.70;;;2.60;;
31384;SDS011;18016;49.788;8.742;2023-02-25T06:01:12;15.57;;;2.80;;
31384;SDS011;18016;49.788;8.742;2023-02-25T06:03:38;16.90;;;3.85;;
31384;SDS011;18016;49.788;8.742;2023-02-25T06:06:04;13.05;;;3.25;;
31384;SDS011;18016;49.788;8.742;2023-02-25T06:08:29;14.38;;;3.00;;
31384;SDS011;18016;49.788;8.742;2023-02-25T06:10:54;16.10;;;3.20;;
31384;SDS011;18016;49.788;8.742;2023-02-25T06:13:20;18.30;;;3.17;;
31384;SDS011;18016;49.788;8.742;2023-02-25T06:15:45;19.93;;;2.90;;
31384;SDS011;18016;49.788;8.742;2023-02-25T06:18:10;13.43;;;3.00;;
31384;SDS011;18016;49.788;8.742;2023-02-25T06:20:35;21.65;;;4.28;;
31384;SDS011;18016;49.788;8.742;2023-02-25T06:23:01;13.73;;;2.85;;
31384;SDS011;18016;49.788;8.742;2023-02-25T06:25:27;19.17;;;3.20;;
31384;SDS011;18016;49.788;8.742;2023-02-25T06:27:54;14.25;;;2.63;;
31384;SDS011;18016;49.788;8.742;2023-02-25T06:30:19;10.38;;;3.30;;
31384;SDS011;18016;49.788;8.742;2023-02-25T06:32:44;14.67;;;3.30;;
31384;SDS011;18016;49.788;8.742;2023-02-25T06:35:09;14.73;;;3.20;;
31384;SDS011;18016;49.788;8.742;2023-02-25T06:37:34;14.23;;;3.17;;
31384;SDS011;18016;49.788;8.742;2023-02-25T06:39:59;13.93;;;2.88;;
31384;SDS011;18016;49.788;8.742;2023-02-25T06:42:25;12.90;;;3.63;;
31384;SDS011;18016;49.788;8.742;2023-02-25T06:44:50;17.53;;;3.20;;
31384;SDS011;18016;49.788;8.742;2023-02-25T06:47:15;12.43;;;3.00;;
31384;SDS011;18016;49.788;8.742;2023-02-25T06:49:40;17.77;;;3.83;;
31384;SDS011;18016;49.788;8.742;2023-02-25T06:52:05;18.92;;;3.45;;
31384;SDS011;18016;49.788;8.742;2023-02-25T06:54:30;19.53;;;3.63;;
31384;SDS011;18016;49.788;8.742;2023-02-25T06:56:56;14.10;;;2.83;;
31384;SDS011;18016;49.788;8.742;2023-02-25T06:59:21;15.70;;;3.47;;
31384;SDS011;18016;49.788;8.742;2023-02-25T07:01:46;24.42;;;3.40;;
31384;SDS011;18016;49.788;8.742;2023-02-25T07:04:15;9.93;;;2.63;;
31384;SDS011;18016;49.788;8.742;2023-02-25T07:06:40;15.43;;;3.17;;
31384;SDS011;18016;49.788;8.742;2023-02-25T07:09:05;17.50;;;3.47;;
31384;SDS011;18016;49.788;8.742;2023-02-25T07:11:31;24.60;;;3.80;;
31384;SDS011;18016;49.788;8.742;2023-02-25T07:13:58;18.20;;;3.83;;
31384;SDS011;18016;49.788;8.742;2023-02-25T07:16:23;16.03;;;3.57;;
31384;SDS011;18016;49.788;8.742;2023-02-25T07:18:49;16.50;;;3.70;;
31384;SDS011;18016;49.788;8.742;2023-02-25T07:21:14;16.38;;;2.70;;
31384;SDS011;18016;49.788;8.742;2023-02-25T07:23:40;16.00;;;4.10;;
31384;SDS011;18016;49.788;8.742;2023-02-25T07:26:06;13.95;;;3.85;;
31384;SDS011;18016;49.788;8.742;2023-02-25T07:28:31;15.52;;;3.33;;
31384;SDS011;18016;49.788;8.742;2023-02-25T07:31:00;18.30;;;4.10;;
31384;SDS011;18016;49.788;8.742;2023-02-25T07:33:27;12.40;;;3.40;;
31384;SDS011;18016;49.788;8.742;2023-02-25T07:35:53;11.50;;;3.42;;
31384;SDS011;18016;49.788;8.742;2023-02-25T07:38:18;15.98;;;3.10;;
31384;SDS011;18016;49.788;8.742;2023-02-25T07:40:43;12.47;;;3.23;;
31384;SDS011;18016;49.788;8.742;2023-02-25T07:43:08;22.47;;;4.07;;
31384;SDS011;18016;49.788;8.742;2023-02-25T07:45:33;19.17;;;4.13;;
31384;SDS011;18016;49.788;8.742;2023-02-25T07:47:59;15.17;;;3.17;;
31384;SDS011;18016;49.788;8.742;2023-02-25T07:50:24;17.50;;;3.28;;
31384;SDS011;18016;49.788;8.742;2023-02-25T07:52:49;21.83;;;3.87;;
31384;SDS011;18016;49.788;8.742;2023-02-25T07:55:14;18.67;;;3.80;;
31384;SDS011;18016;49.788;8.742;2023-02-25T07:57:39;18.00;;;3.28;;
31384;SDS011;18016;49.788;8.742;2023-02-25T08:00:05;17.30;;;4.30;;
31384;SDS011;18016;49.788;8.742;2023-02-25T08:02:34;20.30;;;3.88;;
31384;SDS011;18016;49.788;8.742;2023-02-25T08:04:59;13.98;;;3.63;;
31384;SDS011;18016;49.788;8.742;2023-02-25T08:07:25;15.75;;;3.63;;
31384;SDS011;18016;49.788;8.742;2023-02-25T08:09:50;18.30;;;4.97;;
31384;SDS011;18016;49.788;8.742;2023-02-25T08:12:15;12.60;;;3.97;;
31384;SDS011;18016;49.788;8.742;2023-02-25T08:14:40;15.70;;;3.50;;
31384;SDS011;18016;49.788;8.742;2023-02-25T08:17:05;12.53;;;3.77;;
31384;SDS011;18016;49.788;8.742;2023-02-25T08:19:30;15.43;;;3.67;;
31384;SDS011;18016;49.788;8.742;2023-02-25T08:21:55;13.97;;;3.53;;
31384;SDS011;18016;49.788;8.742;2023-02-25T08:24:21;15.63;;;3.90;;
31384;SDS011;18016;49.788;8.742;2023-02-25T08:26:46;10.70;;;3.40;;
31384;SDS011;18016;49.788;8.742;2023-02-25T08:29:12;21.00;;;5.15;;
31384;SDS011;18016;49.788;8.742;2023-02-25T08:31:37;18.00;;;4.70;;
31384;SDS011;18016;49.788;8.742;2023-02-25T08:34:02;18.93;;;4.03;;
31384;SDS011;18016;49.788;8.742;2023-02-25T08:36:28;19.30;;;4.43;;
31384;SDS011;18016;49.788;8.742;2023-02-25T08:38:55;12.05;;;4.40;;
31384;SDS011;18016;49.788;8.742;2023-02-25T08:41:24;15.52;;;3.58;;
31384;SDS011;18016;49.788;8.742;2023-02-25T08:43:53;13.65;;;4.60;;
31384;SDS011;18016;49.788;8.742;2023-02-25T08:46:19;15.57;;;6.22;;
31384;SDS011;18016;49.788;8.742;2023-02-25T08:48:47;12.40;;;4.05;;
31384;SDS011;18016;49.788;8.742;2023-02-25T08:51:12;18.08;;;4.68;;
31384;SDS011;18016;49.788;8.742;2023-02-25T08:53:39;18.50;;;3.95;;
31384;SDS011;18016;49.788;8.742;2023-02-25T08:56:05;16.20;;;3.67;;
31384;SDS011;18016;49.788;8.742;2023-02-25T08:58:31;13.35;;;4.90;;
31384;SDS011;18016;49.788;8.742;2023-02-25T09:00:56;19.48;;;4.20;;
31384;SDS011;18016;49.788;8.742;2023-02-25T09:03:21;17.52;;;4.30;;
31384;SDS011;18016;49.788;8.742;2023-02-25T09:05:51;15.37;;;4.43;;
31384;SDS011;18016;49.788;8.742;2023-02-25T09:08:16;14.98;;;4.00;;
31384;SDS011;18016;49.788;8.742;2023-02-25T09:10:41;18.00;;;5.20;;
31384;SDS011;18016;49.788;8.742;2023-02-25T09:13:06;20.23;;;4.60;;
31384;SDS011;18016;49.788;8.742;2023-02-25T09:15:31;16.70;;;4.60;;
31384;SDS011;18016;49.788;8.742;2023-02-25T09:17:57;17.20;;;4.20;;
31384;SDS011;18016;49.788;8.742;2023-02-25T09:20:22;17.50;;;4.20;;
31384;SDS011;18016;49.788;8.742;2023-02-25T09:22:49;14.18;;;4.07;;
31384;SDS011;18016;49.788;8.742;2023-02-25T09:25:14;12.50;;;4.00;;
31384;SDS011;18016;49.788;8.742;2023-02-25T09:27:40;15.63;;;4.73;;
31384;SDS011;18016;49.788;8.742;2023-02-25T09:30:05;15.88;;;5.18;;
31384;SDS011;18016;49.788;8.742;2023-02-25T09:32:30;13.57;;;4.63;;
31384;SDS011;18016;49.788;8.742;2023-02-25T09:34:55;14.63;;;4.40;;
31384;SDS011;18016;49.788;8.742;2023-02-25T09:37:21;16.03;;;5.23;;
31384;SDS011;18016;49.788;8.742;2023-02-25T09:39:46;23.33;;;7.43;;
31384;SDS011;18016;49.788;8.742;2023-02-25T09:42:18;18.08;;;5.03;;
31384;SDS011;18016;49.788;8.742;2023-02-25T09:44:46;9.55;;;4.30;;
31384;SDS011;18016;49.788;8.742;2023-02-25T09:47:22;13.88;;;4.55;;
31384;SDS011;18016;49.788;8.742;2023-02-25T09:49:50;20.05;;;5.07;;
31384;SDS011;18016;49.788;8.742;2023-02-25T09:54:54;14.10;;;5.20;;
31384;SDS011;18016;49.788;8.742;2023-02-25T09:57:20;18.45;;;4.60;;
31384;SDS011;18016;49.788;8.742;2023-02-25T09:59:47;16.17;;;4.53;;
31384;SDS011;18016;49.788;8.742;2023-02-25T10:07:31;12.30;;;4.07;;
31384;SDS011;18016;49.788;8.742;2023-02-25T10:15:07;14.90;;;5.70;;
31384;SDS011;18016;49.788;8.742;2023-02-25T10:18:28;13.23;;;3.75;;
31384;SDS011;18016;49.788;8.742;2023-02-25T10:28:24;12.27;;;4.00;;
31384;SDS011;18016;49.788;8.742;2023-02-25T10:33:20;7.72;;;3.45;;
31384;SDS011;18016;49.788;8.742;2023-02-25T10:35:48;11.20;;;4.13;;
31384;SDS011;18016;49.788;8.742;2023-02-25T10:38:15;8.73;;;3.75;;
31384;SDS011;18016;49.788;8.742;2023-02-25T10:40:40;8.13;;;3.72;;
31384;SDS011;18016;49.788;8.742;2023-02-25T10:43:15;18.85;;;4.18;;
31384;SDS011;18016;49.788;8.742;2023-02-25T10:45:42;8.90;;;3.90;;
31384;SDS011;18016;49.788;8.742;2023-02-25T10:48:13;8.52;;;3.10;;
31384;SDS011;18016;49.788;8.742;2023-02-25T10:50:40;9.90;;;3.65;;
31384;SDS011;18016;49.788;8.742;2023-02-25T10:53:11;10.70;;;3.63;;
31384;SDS011;18016;49.788;8.742;2023-02-25T10:58:05;14.63;;;4.18;;
31384;SDS011;18016;49.788;8.742;2023-02-25T11:00:31;10.15;;;3.30;;
31384;SDS011;18016;49.788;8.742;2023-02-25T11:02:58;7.70;;;2.55;;
31384;SDS011;18016;49.788;8.742;2023-02-25T11:05:40;9.77;;;2.70;;
31384;SDS011;18016;49.788;8.742;2023-02-25T11:08:25;10.73;;;2.58;;
31384;SDS011;18016;49.788;8.742;2023-02-25T11:13:30;9.52;;;2.75;;
31384;SDS011;18016;49.788;8.742;2023-02-25T11:15:55;18.55;;;3.67;;
31384;SDS011;18016;49.788;8.742;2023-02-25T11:18:23;8.13;;;2.95;;
31384;SDS011;18016;49.788;8.742;2023-02-25T11:20:52;14.77;;;3.85;;
31384;SDS011;18016;49.788;8.742;2023-02-25T11:23:22;10.85;;;3.63;;
31384;SDS011;18016;49.788;8.742;2023-02-25T11:25:48;14.40;;;2.83;;
31384;SDS011;18016;49.788;8.742;2023-02-25T11:28:19;13.40;;;4.03;;
31384;SDS011;18016;49.788;8.742;2023-02-25T11:30:47;15.68;;;5.35;;
31384;SDS011;18016;49.788;8.742;2023-02-25T11:33:17;25.03;;;7.90;;
31384;SDS011;18016;49.788;8.742;2023-02-25T11:35:44;10.65;;;3.03;;
31384;SDS011;18016;49.788;8.742;2023-02-25T11:38:15;8.50;;;2.63;;
31384;SDS011;18016;49.788;8.742;2023-02-25T11:40:41;13.27;;;3.10;;
31384;SDS011;18016;49.788;8.742;2023-02-25T11:45:47;6.35;;;2.33;;
31384;SDS011;18016;49.788;8.742;2023-02-25T11:48:17;12.38;;;3.13;;
31384;SDS011;18016;49.788;8.742;2023-02-25T11:50:49;9.50;;;2.67;;
31384;SDS011;18016;49.788;8.742;2023-02-25T11:57:04;6.32;;;2.50;;
31384;SDS011;18016;49.788;8.742;2023-02-25T11:58:59;7.13;;;2.08;;
31384;SDS011;18016;49.788;8.742;2023-02-25T12:07:12;10.50;;;2.08;;
31384;SDS011;18016;49.788;8.742;2023-02-25T12:23:13;6.70;;;1.85;;
31384;SDS011;18016;49.788;8.742;2023-02-25T12:31:11;9.48;;;2.47;;
31384;SDS011;18016;49.788;8.742;2023-02-25T12:36:22;11.73;;;2.63;;
31384;SDS011;18016;49.788;8.742;2023-02-25T12:41:34;11.27;;;3.35;;
31384;SDS011;18016;49.788;8.742;2023-02-25T12:52:07;12.68;;;2.67;;
31384;SDS011;18016;49.788;8.742;2023-02-25T13:07:51;6.97;;;2.20;;
31384;SDS011;18016;49.788;8.742;2023-02-25T13:20:49;5.00;;;2.40;;
31384;SDS011;18016;49.788;8.742;2023-02-25T13:28:28;6.80;;;2.28;;
31384;SDS011;18016;49.788;8.742;2023-02-25T13:30:58;8.93;;;2.85;;
31384;SDS011;18016;49.788;8.742;2023-02-25T13:39:13;9.25;;;3.13;;
31384;SDS011;18016;49.788;8.742;2023-02-25T13:52:24;5.82;;;2.55;;
31384;SDS011;18016;49.788;8.742;2023-02-25T13:59:48;5.50;;;2.70;;
31384;SDS011;18016;49.788;8.742;2023-02-25T14:02:31;11.30;;;3.33;;
31384;SDS011;18016;49.788;8.742;2023-02-25T14:10:28;6.50;;;3.00;;
31384;SDS011;18016;49.788;8.742;2023-02-25T14:13:13;9.02;;;5.00;;
31384;SDS011;18016;49.788;8.742;2023-02-25T14:23:27;6.07;;;1.70;;
31384;SDS011;18016;49.788;8.742;2023-02-25T14:31:26;5.57;;;1.65;;
31384;SDS011;18016;49.788;8.742;2023-02-25T14:36:52;8.40;;;4.28;;
31384;SDS011;18016;49.788;8.742;2023-02-25T14:39:34;3.65;;;2.00;;
31384;SDS011;18016;49.788;8.742;2023-02-25T14:42:17;1.90;;;1.35;;
31384;SDS011;18016;49.788;8.742;2023-02-25T14:47:19;3.33;;;1.40;;
31384;SDS011;18016;49.788;8.742;2023-02-25T14:55:48;5.88;;;2.05;;
31384;SDS011;18016;49.788;8.742;2023-02-25T15:00:51;5.95;;;1.15;;
31384;SDS011;18016;49.788;8.742;2023-02-25T15:06:03;4.63;;;1.17;;
31384;SDS011;18016;49.788;8.742;2023-02-25T15:08:53;5.40;;;1.25;;
31384;SDS011;18016;49.788;8.742;2023-02-25T15:16:42;3.45;;;1.30;;
31384;SDS011;18016;49.788;8.742;2023-02-25T15:21:41;2.78;;;2.15;;
31384;SDS011;18016;49.788;8.742;2023-02-25T15:26:52;1.10;;;1.00;;
31384;SDS011;18016;49.788;8.742;2023-02-25T15:32:09;2.47;;;0.90;;
31384;SDS011;18016;49.788;8.742;2023-02-25T15:34:35;2.00;;;0.95;;
31384;SDS011;18016;49.788;8.742;2023-02-25T15:37:23;1.52;;;1.08;;
31384;SDS011;18016;49.788;8.742;2023-02-25T15:39:50;1.00;;;1.00;;
31384;SDS011;18016;49.788;8.742;2023-02-25T15:42:16;1.10;;;0.73;;
31384;SDS011;18016;49.788;8.742;2023-02-25T15:45:23;3.65;;;1.33;;
31384;SDS011;18016;49.788;8.742;2023-02-25T15:47:46;2.87;;;1.40;;
31384;SDS011;18016;49.788;8.742;2023-02-25T15:50:11;3.00;;;1.65;;
31384;SDS011;18016;49.788;8.742;2023-02-25T15:52:57;6.13;;;1.97;;
31384;SDS011;18016;49.788;8.742;2023-02-25T15:57:54;5.68;;;2.28;;
31384;SDS011;18016;49.788;8.742;2023-02-25T16:03:23;4.53;;;2.15;;
31384;SDS011;18016;49.788;8.742;2023-02-25T16:05:48;3.50;;;2.23;;
31384;SDS011;18016;49.788;8.742;2023-02-25T16:08:19;9.53;;;2.80;;
31384;SDS011;18016;49.788;8.742;2023-02-25T16:10:46;5.93;;;3.13;;
31384;SDS011;18016;49.788;8.742;2023-02-25T16:13:20;3.63;;;2.20;;
31384;SDS011;18016;49.788;8.742;2023-02-25T16:15:47;6.15;;;2.95;;
31384;SDS011;18016;49.788;8.742;2023-02-25T16:18:19;21.33;;;11.15;;
31384;SDS011;18016;49.788;8.742;2023-02-25T16:20:49;25.80;;;12.15;;
31384;SDS011;18016;49.788;8.742;2023-02-25T16:23:15;11.77;;;6.35;;
31384;SDS011;18016;49.788;8.742;2023-02-25T16:28:37;6.43;;;3.47;;
31384;SDS011;18016;49.788;8.742;2023-02-25T16:31:22;6.00;;;4.10;;
31384;SDS011;18016;49.788;8.742;2023-02-25T16:33:51;8.15;;;2.50;;
31384;SDS011;18016;49.788;8.742;2023-02-25T16:36:23;9.25;;;3.10;;
31384;SDS011;18016;49.788;8.742;2023-02-25T16:39:09;8.85;;;2.70;;
31384;SDS011;18016;49.788;8.742;2023-02-25T16:41:36;10.40;;;3.50;;
31384;SDS011;18016;49.788;8.742;2023-02-25T16:44:01;8.10;;;2.85;;
31384;SDS011;18016;49.788;8.742;2023-02-25T16:46:28;7.95;;;3.25;;
31384;SDS011;18016;49.788;8.742;2023-02-25T16:48:55;12.30;;;3.20;;
31384;SDS011;18016;49.788;8.742;2023-02-25T16:51:25;4.68;;;1.95;;
31384;SDS011;18016;49.788;8.742;2023-02-25T16:53:56;14.98;;;3.15;;
31384;SDS011;18016;49.788;8.742;2023-02-25T16:56:23;8.40;;;4.07;;
31384;SDS011;18016;49.788;8.742;2023-02-25T17:01:33;15.30;;;7.07;;
31384;SDS011;18016;49.788;8.742;2023-02-25T17:04:18;15.80;;;6.78;;
31384;SDS011;18016;49.788;8.742;2023-02-25T17:07:04;9.80;;;3.07;;
31384;SDS011;18016;49.788;8.742;2023-02-25T17:09:29;9.07;;;3.88;;
31384;SDS011;18016;49.788;8.742;2023-02-25T17:11:55;12.93;;;6.00;;
31384;SDS011;18016;49.788;8.742;2023-02-25T17:14:21;11.27;;;3.78;;
31384;SDS011;18016;49.788;8.742;2023-02-25T17:16:46;5.97;;;2.67;;
31384;SDS011;18016;49.788;8.742;2023-02-25T17:19:12;8.93;;;3.72;;
31384;SDS011;18016;49.788;8.742;2023-02-25T17:21:40;10.63;;;3.00;;
31384;SDS011;18016;49.788;8.742;2023-02-25T17:24:13;11.38;;;2.40;;
31384;SDS011;18016;49.788;8.742;2023-02-25T17:26:41;10.55;;;3.33;;
31384;SDS011;18016;49.788;8.742;2023-02-25T17:29:11;8.95;;;2.95;;
31384;SDS011;18016;49.788;8.742;2023-02-25T17:31:44;7.28;;;2.67;;
31384;SDS011;18016;49.788;8.742;2023-02-25T17:34:29;9.45;;;2.97;;
31384;SDS011;18016;49.788;8.742;2023-02-25T17:36:56;9.18;;;4.55;;
31384;SDS011;18016;49.788;8.742;2023-02-25T17:39:22;11.63;;;4.75;;
31384;SDS011;18016;49.788;8.742;2023-02-25T17:41:48;11.80;;;4.93;;
31384;SDS011;18016;49.788;8.742;2023-02-25T17:46:57;10.38;;;4.28;;
31384;SDS011;18016;49.788;8.742;2023-02-25T17:49:30;7.55;;;3.72;;
31384;SDS011;18016;49.788;8.742;2023-02-25T17:51:56;16.25;;;5.38;;
31384;SDS011;18016;49.788;8.742;2023-02-25T17:54:23;11.63;;;4.45;;
31384;SDS011;18016;49.788;8.742;2023-02-25T17:56:55;6.13;;;2.33;;
31384;SDS011;18016;49.788;8.742;2023-02-25T17:59:32;7.82;;;2.90;;
31384;SDS011;18016;49.788;8.742;2023-02-25T18:02:00;5.78;;;3.10;;
31384;SDS011;18016;49.788;8.742;2023-02-25T18:09:26;12.13;;;2.90;;